sensor_id;sensor_type;location;lat;lon;timestamp;temperature;humidity
6930;DHT22;3504;52.616;13.238;2023-06-22T00:02:35;19.84;75.67
6930;DHT22;3504;52.616;13.238;2023-06-22T00:07:36;19.77;75.93
6930;DHT22;3504;52.616;13.238;2023-06-22T00:12:37;19.73;75.72
6930;DHT22;3504;52.616;13.238;2023-06-22T00:17:38;19.73;76.12
6930;DHT22;3504;52.616;13.238;2023-06-22T00:22:38;19.63;76.33
6930;DHT22;3504;52.616;13.238;2023-06-22T00:27:39;19.59;76.16
6930;DHT22;3504;52.616;13.238;2023-06-22T00:32:40;19.53;76.56
6930;DHT22;3504;52.616;13.238;2023-06-22T00:37:41;19.43;76.81
6930;DHT22;3504;52.616;13.238;2023-06-22T00:42:42;19.39;76.49
6930;DHT22;3504;52.616;13.238;2023-06-22T00:47:43;19.32;76.97
6930;DHT22;3504;52.616;13.238;2023-06-22T00:52:44;19.25;77.14
6930;DHT22;3504;52.616;13.238;2023-06-22T00:57:46;19.12;77.01
6930;DHT22;3504;52.616;13.238;2023-06-22T01:02:48;19.12;76.91
6930;DHT22;3504;52.616;13.238;2023-06-22T01:18:31;18.84;77.91
6930;DHT22;3504;52.616;13.238;2023-06-22T01:29:08;18.71;77.85
6930;DHT22;3504;52.616;13.238;2023-06-22T01:34:12;18.71;77.35
6930;DHT22;3504;52.616;13.238;2023-06-22T01:39:15;18.67;77.38
6930;DHT22;3504;52.616;13.238;2023-06-22T01:44:16;18.64;77.35
6930;DHT22;3504;52.616;13.238;2023-06-22T01:49:17;18.57;78.02
6930;DHT22;3504;52.616;13.238;2023-06-22T01:54:17;18.50;78.49
6930;DHT22;3504;52.616;13.238;2023-06-22T01:59:31;18.41;78.00
6930;DHT22;3504;52.616;13.238;2023-06-22T02:09:38;18.34;78.26
6930;DHT22;3504;52.616;13.238;2023-06-22T02:14:39;18.30;77.85
6930;DHT22;3504;52.616;13.238;2023-06-22T02:19:43;18.30;78.57
6930;DHT22;3504;52.616;13.238;2023-06-22T02:24:44;18.24;78.17
6930;DHT22;3504;52.616;13.238;2023-06-22T02:29:44;18.21;78.85
6930;DHT22;3504;52.616;13.238;2023-06-22T02:34:45;18.16;78.83
6930;DHT22;3504;52.616;13.238;2023-06-22T02:39:48;18.13;78.92
6930;DHT22;3504;52.616;13.238;2023-06-22T02:44:48;18.17;78.57
6930;DHT22;3504;52.616;13.238;2023-06-22T02:49:49;18.13;78.99
6930;DHT22;3504;52.616;13.238;2023-06-22T02:54:50;18.13;78.56
6930;DHT22;3504;52.616;13.238;2023-06-22T02:59:51;18.17;78.54
6930;DHT22;3504;52.616;13.238;2023-06-22T03:04:51;18.18;79.34
6930;DHT22;3504;52.616;13.238;2023-06-22T03:09:53;18.20;79.58
6930;DHT22;3504;52.616;13.238;2023-06-22T03:14:54;18.21;79.53
6930;DHT22;3504;52.616;13.238;2023-06-22T03:19:54;18.20;79.51
6930;DHT22;3504;52.616;13.238;2023-06-22T03:24:55;18.18;79.90
6930;DHT22;3504;52.616;13.238;2023-06-22T03:29:59;18.24;79.15
6930;DHT22;3504;52.616;13.238;2023-06-22T03:34:59;18.24;78.88
6930;DHT22;3504;52.616;13.238;2023-06-22T03:40:01;18.31;78.81
6930;DHT22;3504;52.616;13.238;2023-06-22T03:45:05;18.37;79.21
6930;DHT22;3504;52.616;13.238;2023-06-22T03:50:06;18.38;79.35
6930;DHT22;3504;52.616;13.238;2023-06-22T03:55:07;18.41;79.44
6930;DHT22;3504;52.616;13.238;2023-06-22T04:00:08;18.48;79.61
6930;DHT22;3504;52.616;13.238;2023-06-22T04:05:13;18.53;79.39
6930;DHT22;3504;52.616;13.238;2023-06-22T04:10:13;18.58;79.59
6930;DHT22;3504;52.616;13.238;2023-06-22T04:15:14;18.67;79.83
6930;DHT22;3504;52.616;13.238;2023-06-22T04:20:15;18.74;80.16
6930;DHT22;3504;52.616;13.238;2023-06-22T04:25:15;18.81;80.57
6930;DHT22;3504;52.616;13.238;2023-06-22T04:30:16;18.91;80.28
6930;DHT22;3504;52.616;13.238;2023-06-22T04:35:17;19.05;80.18
6930;DHT22;3504;52.616;13.238;2023-06-22T04:40:17;19.19;79.93
6930;DHT22;3504;52.616;13.238;2023-06-22T04:45:19;19.32;79.61
6930;DHT22;3504;52.616;13.238;2023-06-22T04:50:19;19.51;79.47
6930;DHT22;3504;52.616;13.238;2023-06-22T04:55:22;19.70;79.19
6930;DHT22;3504;52.616;13.238;2023-06-22T05:00:22;19.91;78.15
6930;DHT22;3504;52.616;13.238;2023-06-22T05:05:24;20.17;78.16
6930;DHT22;3504;52.616;13.238;2023-06-22T05:10:24;20.39;76.27
6930;DHT22;3504;52.616;13.238;2023-06-22T05:15:25;20.66;76.75
6930;DHT22;3504;52.616;13.238;2023-06-22T05:20:30;20.83;75.32
6930;DHT22;3504;52.616;13.238;2023-06-22T05:25:33;20.97;73.98
6930;DHT22;3504;52.616;13.238;2023-06-22T05:30:34;21.06;73.88
6930;DHT22;3504;52.616;13.238;2023-06-22T05:35:34;21.14;73.35
6930;DHT22;3504;52.616;13.238;2023-06-22T05:40:35;21.28;74.06
6930;DHT22;3504;52.616;13.238;2023-06-22T05:45:35;21.44;73.20
6930;DHT22;3504;52.616;13.238;2023-06-22T05:50:39;21.76;72.74
6930;DHT22;3504;52.616;13.238;2023-06-22T05:55:40;22.13;69.09
6930;DHT22;3504;52.616;13.238;2023-06-22T06:00:41;22.59;69.34
6930;DHT22;3504;52.616;13.238;2023-06-22T06:05:43;23.02;66.94
6930;DHT22;3504;52.616;13.238;2023-06-22T06:10:43;23.41;65.73
6930;DHT22;3504;52.616;13.238;2023-06-22T06:15:44;23.78;63.01
6930;DHT22;3504;52.616;13.238;2023-06-22T06:20:44;24.14;62.12
6930;DHT22;3504;52.616;13.238;2023-06-22T06:25:48;24.44;60.16
6930;DHT22;3504;52.616;13.238;2023-06-22T06:30:48;24.75;59.00
6930;DHT22;3504;52.616;13.238;2023-06-22T06:35:49;25.05;55.01
6930;DHT22;3504;52.616;13.238;2023-06-22T06:40:49;25.16;55.97
6930;DHT22;3504;52.616;13.238;2023-06-22T06:45:50;25.42;53.99
6930;DHT22;3504;52.616;13.238;2023-06-22T06:50:51;25.51;52.41
6930;DHT22;3504;52.616;13.238;2023-06-22T06:55:51;25.50;52.44
6930;DHT22;3504;52.616;13.238;2023-06-22T07:00:52;25.59;52.45
6930;DHT22;3504;52.616;13.238;2023-06-22T07:05:52;25.74;52.55
6930;DHT22;3504;52.616;13.238;2023-06-22T07:10:53;25.63;51.85
6930;DHT22;3504;52.616;13.238;2023-06-22T07:15:53;25.90;51.93
6930;DHT22;3504;52.616;13.238;2023-06-22T07:20:54;25.75;51.41
6930;DHT22;3504;52.616;13.238;2023-06-22T07:25:54;25.94;52.05
6930;DHT22;3504;52.616;13.238;2023-06-22T07:30:55;25.84;51.68
6930;DHT22;3504;52.616;13.238;2023-06-22T07:35:55;26.05;52.31
6930;DHT22;3504;52.616;13.238;2023-06-22T07:40:58;26.21;50.91
6930;DHT22;3504;52.616;13.238;2023-06-22T07:45:59;26.05;51.11
6930;DHT22;3504;52.616;13.238;2023-06-22T07:51:00;25.74;50.33
6930;DHT22;3504;52.616;13.238;2023-06-22T07:56:01;25.97;51.14
6930;DHT22;3504;52.616;13.238;2023-06-22T08:01:02;26.20;52.02
6930;DHT22;3504;52.616;13.238;2023-06-22T08:06:03;26.20;50.39
6930;DHT22;3504;52.616;13.238;2023-06-22T08:11:04;26.14;49.81
6930;DHT22;3504;52.616;13.238;2023-06-22T08:16:06;26.00;48.57
6930;DHT22;3504;52.616;13.238;2023-06-22T08:21:07;26.35;50.08
6930;DHT22;3504;52.616;13.238;2023-06-22T08:26:08;26.90;47.94
6930;DHT22;3504;52.616;13.238;2023-06-22T08:31:09;26.85;47.14
6930;DHT22;3504;52.616;13.238;2023-06-22T08:36:10;26.73;48.41
6930;DHT22;3504;52.616;13.238;2023-06-22T08:41:11;26.70;49.78
6930;DHT22;3504;52.616;13.238;2023-06-22T08:46:12;26.56;47.74
6930;DHT22;3504;52.616;13.238;2023-06-22T08:51:12;26.41;47.57
6930;DHT22;3504;52.616;13.238;2023-06-22T08:56:14;26.60;50.06
6930;DHT22;3504;52.616;13.238;2023-06-22T09:01:14;26.86;48.68
6930;DHT22;3504;52.616;13.238;2023-06-22T09:06:16;26.78;47.51
6930;DHT22;3504;52.616;13.238;2023-06-22T09:11:16;26.96;47.59
6930;DHT22;3504;52.616;13.238;2023-06-22T09:16:17;27.02;45.42
6930;DHT22;3504;52.616;13.238;2023-06-22T09:21:17;27.38;46.88
6930;DHT22;3504;52.616;13.238;2023-06-22T09:26:18;27.47;44.17
6930;DHT22;3504;52.616;13.238;2023-06-22T09:31:19;27.79;44.53
6930;DHT22;3504;52.616;13.238;2023-06-22T09:36:25;28.36;43.04
6930;DHT22;3504;52.616;13.238;2023-06-22T09:41:26;28.63;41.21
6930;DHT22;3504;52.616;13.238;2023-06-22T09:46:27;28.83;42.21
6930;DHT22;3504;52.616;13.238;2023-06-22T09:51:28;29.16;41.13
6930;DHT22;3504;52.616;13.238;2023-06-22T09:56:28;29.29;41.43
6930;DHT22;3504;52.616;13.238;2023-06-22T10:01:30;29.35;41.11
6930;DHT22;3504;52.616;13.238;2023-06-22T10:06:31;29.19;39.88
6930;DHT22;3504;52.616;13.238;2023-06-22T10:11:31;29.15;41.02
6930;DHT22;3504;52.616;13.238;2023-06-22T10:16:36;29.04;41.05
6930;DHT22;3504;52.616;13.238;2023-06-22T10:21:36;29.11;41.76
6930;DHT22;3504;52.616;13.238;2023-06-22T10:26:37;28.87;42.24
6930;DHT22;3504;52.616;13.238;2023-06-22T10:31:37;28.63;41.98
6930;DHT22;3504;52.616;13.238;2023-06-22T10:36:38;28.78;42.90
6930;DHT22;3504;52.616;13.238;2023-06-22T10:41:39;29.35;43.72
6930;DHT22;3504;52.616;13.238;2023-06-22T10:46:39;29.79;42.23
6930;DHT22;3504;52.616;13.238;2023-06-22T10:51:40;30.37;41.25
6930;DHT22;3504;52.616;13.238;2023-06-22T10:56:41;30.57;39.93
6930;DHT22;3504;52.616;13.238;2023-06-22T11:01:42;30.55;38.06
6930;DHT22;3504;52.616;13.238;2023-06-22T11:06:43;30.62;39.13
6930;DHT22;3504;52.616;13.238;2023-06-22T11:11:44;30.72;38.90
6930;DHT22;3504;52.616;13.238;2023-06-22T11:16:45;30.88;38.37
6930;DHT22;3504;52.616;13.238;2023-06-22T11:21:46;30.30;39.48
6930;DHT22;3504;52.616;13.238;2023-06-22T11:26:47;29.65;40.02
6930;DHT22;3504;52.616;13.238;2023-06-22T11:31:47;29.96;41.30
6930;DHT22;3504;52.616;13.238;2023-06-22T11:36:48;30.17;38.49
6930;DHT22;3504;52.616;13.238;2023-06-22T11:41:49;30.54;41.19
6930;DHT22;3504;52.616;13.238;2023-06-22T11:46:49;30.52;39.53
6930;DHT22;3504;52.616;13.238;2023-06-22T11:51:50;30.74;38.24
6930;DHT22;3504;52.616;13.238;2023-06-22T11:56:50;30.85;36.58
6930;DHT22;3504;52.616;13.238;2023-06-22T12:01:51;30.85;38.80
6930;DHT22;3504;52.616;13.238;2023-06-22T12:06:51;30.74;38.68
6930;DHT22;3504;52.616;13.238;2023-06-22T12:11:52;30.38;38.75
6930;DHT22;3504;52.616;13.238;2023-06-22T12:16:52;30.16;39.44
6930;DHT22;3504;52.616;13.238;2023-06-22T12:21:53;30.16;39.63
6930;DHT22;3504;52.616;13.238;2023-06-22T12:26:53;30.21;39.47
6930;DHT22;3504;52.616;13.238;2023-06-22T12:31:54;30.31;38.58
6930;DHT22;3504;52.616;13.238;2023-06-22T12:36:54;30.33;38.63
6930;DHT22;3504;52.616;13.238;2023-06-22T12:41:55;30.50;38.85
6930;DHT22;3504;52.616;13.238;2023-06-22T12:46:59;30.41;38.67
6930;DHT22;3504;52.616;13.238;2023-06-22T12:51:59;30.33;38.86
6930;DHT22;3504;52.616;13.238;2023-06-22T12:57:01;30.17;39.25
6930;DHT22;3504;52.616;13.238;2023-06-22T13:02:01;30.38;39.10
6930;DHT22;3504;52.616;13.238;2023-06-22T13:07:02;30.41;39.69
6930;DHT22;3504;52.616;13.238;2023-06-22T13:12:03;30.57;38.40
6930;DHT22;3504;52.616;13.238;2023-06-22T13:17:04;30.55;38.70
6930;DHT22;3504;52.616;13.238;2023-06-22T13:22:05;30.50;38.75
6930;DHT22;3504;52.616;13.238;2023-06-22T13:27:05;30.52;37.97
6930;DHT22;3504;52.616;13.238;2023-06-22T13:32:06;30.50;38.92
6930;DHT22;3504;52.616;13.238;2023-06-22T13:37:07;30.62;40.28
6930;DHT22;3504;52.616;13.238;2023-06-22T13:42:07;30.62;39.96
6930;DHT22;3504;52.616;13.238;2023-06-22T13:47:08;30.47;38.75
6930;DHT22;3504;52.616;13.238;2023-06-22T13:52:09;30.74;38.99
6930;DHT22;3504;52.616;13.238;2023-06-22T13:57:13;30.74;38.52
6930;DHT22;3504;52.616;13.238;2023-06-22T14:02:13;30.67;39.19
6930;DHT22;3504;52.616;13.238;2023-06-22T14:07:14;30.52;39.16
6930;DHT22;3504;52.616;13.238;2023-06-22T14:12:14;30.41;39.03
6930;DHT22;3504;52.616;13.238;2023-06-22T14:17:16;30.50;39.78
6930;DHT22;3504;52.616;13.238;2023-06-22T14:22:16;30.47;38.57
6930;DHT22;3504;52.616;13.238;2023-06-22T14:27:17;30.51;39.81
6930;DHT22;3504;52.616;13.238;2023-06-22T14:32:17;30.51;40.03
6930;DHT22;3504;52.616;13.238;2023-06-22T14:37:18;30.60;40.15
6930;DHT22;3504;52.616;13.238;2023-06-22T14:42:18;30.52;40.06
6930;DHT22;3504;52.616;13.238;2023-06-22T14:47:19;30.28;39.21
6930;DHT22;3504;52.616;13.238;2023-06-22T14:52:19;30.16;40.19
6930;DHT22;3504;52.616;13.238;2023-06-22T14:57:20;30.27;40.38
6930;DHT22;3504;52.616;13.238;2023-06-22T15:02:23;30.38;41.11
6930;DHT22;3504;52.616;13.238;2023-06-22T15:07:23;30.27;40.21
6930;DHT22;3504;52.616;13.238;2023-06-22T15:12:24;30.10;40.69
6930;DHT22;3504;52.616;13.238;2023-06-22T15:17:24;30.21;41.55
6930;DHT22;3504;52.616;13.238;2023-06-22T15:22:29;30.03;40.13
6930;DHT22;3504;52.616;13.238;2023-06-22T15:27:31;29.97;41.25
6930;DHT22;3504;52.616;13.238;2023-06-22T15:32:32;29.93;41.17
6930;DHT22;3504;52.616;13.238;2023-06-22T15:37:32;30.03;42.37
6930;DHT22;3504;52.616;13.238;2023-06-22T15:42:33;29.92;41.84
6930;DHT22;3504;52.616;13.238;2023-06-22T15:47:33;29.88;41.52
6930;DHT22;3504;52.616;13.238;2023-06-22T15:52:34;29.77;42.43
6930;DHT22;3504;52.616;13.238;2023-06-22T15:57:34;29.58;43.91
6930;DHT22;3504;52.616;13.238;2023-06-22T16:02:35;29.32;42.92
6930;DHT22;3504;52.616;13.238;2023-06-22T16:07:37;29.31;42.59
6930;DHT22;3504;52.616;13.238;2023-06-22T16:12:42;29.38;42.23
6930;DHT22;3504;52.616;13.238;2023-06-22T16:17:42;29.19;43.44
6930;DHT22;3504;52.616;13.238;2023-06-22T16:22:43;29.04;44.45
6930;DHT22;3504;52.616;13.238;2023-06-22T16:27:46;28.86;44.34
6930;DHT22;3504;52.616;13.238;2023-06-22T16:32:54;28.95;44.32
6930;DHT22;3504;52.616;13.238;2023-06-22T16:37:55;28.95;43.46
6930;DHT22;3504;52.616;13.238;2023-06-22T16:42:56;28.87;44.97
6930;DHT22;3504;52.616;13.238;2023-06-22T16:47:56;28.66;44.94
6930;DHT22;3504;52.616;13.238;2023-06-22T16:52:57;28.37;45.13
6930;DHT22;3504;52.616;13.238;2023-06-22T16:57:58;28.19;45.94
6930;DHT22;3504;52.616;13.238;2023-06-22T17:03:00;28.13;45.69
6930;DHT22;3504;52.616;13.238;2023-06-22T17:08:04;28.09;45.79
6930;DHT22;3504;52.616;13.238;2023-06-22T17:13:07;27.96;46.67
6930;DHT22;3504;52.616;13.238;2023-06-22T17:18:07;27.95;46.33
6930;DHT22;3504;52.616;13.238;2023-06-22T17:23:10;27.93;46.74
6930;DHT22;3504;52.616;13.238;2023-06-22T17:28:10;27.86;46.02
6930;DHT22;3504;52.616;13.238;2023-06-22T17:33:14;27.78;46.61
6930;DHT22;3504;52.616;13.238;2023-06-22T17:38:22;27.68;46.26
6930;DHT22;3504;52.616;13.238;2023-06-22T17:43:22;27.65;46.42
6930;DHT22;3504;52.616;13.238;2023-06-22T17:48:23;27.53;46.80
6930;DHT22;3504;52.616;13.238;2023-06-22T17:53:26;27.41;46.66
6930;DHT22;3504;52.616;13.238;2023-06-22T17:58:27;27.31;46.43
6930;DHT22;3504;52.616;13.238;2023-06-22T18:03:28;27.28;47.29
6930;DHT22;3504;52.616;13.238;2023-06-22T18:08:29;27.16;47.25
6930;DHT22;3504;52.616;13.238;2023-06-22T18:13:30;27.08;47.72
6930;DHT22;3504;52.616;13.238;2023-06-22T18:18:31;27.02;48.10
6930;DHT22;3504;52.616;13.238;2023-06-22T18:23:33;26.89;49.03
6930;DHT22;3504;52.616;13.238;2023-06-22T18:28:36;26.76;48.48
6930;DHT22;3504;52.616;13.238;2023-06-22T18:33:37;26.63;48.38
6930;DHT22;3504;52.616;13.238;2023-06-22T18:38:41;26.51;49.05
6930;DHT22;3504;52.616;13.238;2023-06-22T18:43:42;26.46;49.45
6930;DHT22;3504;52.616;13.238;2023-06-22T18:48:45;26.38;49.56
6930;DHT22;3504;52.616;13.238;2023-06-22T18:54:02;26.25;49.24
6930;DHT22;3504;52.616;13.238;2023-06-22T18:59:11;26.12;49.13
6930;DHT22;3504;52.616;13.238;2023-06-22T19:04:15;26.06;49.12
6930;DHT22;3504;52.616;13.238;2023-06-22T19:09:17;25.93;49.05
6930;DHT22;3504;52.616;13.238;2023-06-22T19:14:20;25.87;49.30
6930;DHT22;3504;52.616;13.238;2023-06-22T19:19:24;25.83;49.75
6930;DHT22;3504;52.616;13.238;2023-06-22T19:24:30;25.75;50.14
6930;DHT22;3504;52.616;13.238;2023-06-22T19:29:31;25.67;50.41
6930;DHT22;3504;52.616;13.238;2023-06-22T19:34:35;25.57;50.07
6930;DHT22;3504;52.616;13.238;2023-06-22T19:39:36;25.51;50.58
6930;DHT22;3504;52.616;13.238;2023-06-22T19:44:37;25.49;50.41
6930;DHT22;3504;52.616;13.238;2023-06-22T19:49:37;25.44;50.96
6930;DHT22;3504;52.616;13.238;2023-06-22T19:54:38;25.34;50.41
6930;DHT22;3504;52.616;13.238;2023-06-22T19:59:40;25.30;50.54
6930;DHT22;3504;52.616;13.238;2023-06-22T20:11:29;24.98;53.60
6930;DHT22;3504;52.616;13.238;2023-06-22T20:16:30;24.82;55.06
6930;DHT22;3504;52.616;13.238;2023-06-22T20:21:32;24.62;56.86
6930;DHT22;3504;52.616;13.238;2023-06-22T20:26:46;24.50;56.24
6930;DHT22;3504;52.616;13.238;2023-06-22T20:31:47;24.48;56.91
6930;DHT22;3504;52.616;13.238;2023-06-22T20:36:47;24.24;60.92
6930;DHT22;3504;52.616;13.238;2023-06-22T20:41:48;23.35;69.56
6930;DHT22;3504;52.616;13.238;2023-06-22T20:46:48;22.70;73.24
6930;DHT22;3504;52.616;13.238;2023-06-22T20:51:49;22.02;74.83
6930;DHT22;3504;52.616;13.238;2023-06-22T20:56:49;21.94;74.44
6930;DHT22;3504;52.616;13.238;2023-06-22T21:01:50;21.81;76.44
6930;DHT22;3504;52.616;13.238;2023-06-22T21:06:56;21.54;77.45
6930;DHT22;3504;52.616;13.238;2023-06-22T21:11:58;21.34;78.41
6930;DHT22;3504;52.616;13.238;2023-06-22T21:16:59;21.26;78.95
6930;DHT22;3504;52.616;13.238;2023-06-22T21:22:00;21.21;79.60
6930;DHT22;3504;52.616;13.238;2023-06-22T21:27:00;21.20;78.78
6930;DHT22;3504;52.616;13.238;2023-06-22T21:32:01;21.18;78.14
6930;DHT22;3504;52.616;13.238;2023-06-22T21:37:02;21.24;77.33
6930;DHT22;3504;52.616;13.238;2023-06-22T21:42:03;21.26;79.11
6930;DHT22;3504;52.616;13.238;2023-06-22T21:47:04;20.94;80.71
6930;DHT22;3504;52.616;13.238;2023-06-22T21:52:07;20.99;79.47
6930;DHT22;3504;52.616;13.238;2023-06-22T21:57:12;21.02;79.13
6930;DHT22;3504;52.616;13.238;2023-06-22T22:02:12;20.87;80.99
6930;DHT22;3504;52.616;13.238;2023-06-22T22:07:13;20.68;81.44
6930;DHT22;3504;52.616;13.238;2023-06-22T22:12:14;20.60;81.62
6930;DHT22;3504;52.616;13.238;2023-06-22T22:17:14;20.57;81.61
6930;DHT22;3504;52.616;13.238;2023-06-22T22:22:15;20.56;81.24
6930;DHT22;3504;52.616;13.238;2023-06-22T22:27:15;20.43;81.17
6930;DHT22;3504;52.616;13.238;2023-06-22T22:32:16;20.25;81.56
6930;DHT22;3504;52.616;13.238;2023-06-22T22:37:17;20.12;82.19
6930;DHT22;3504;52.616;13.238;2023-06-22T22:42:17;20.10;82.01
6930;DHT22;3504;52.616;13.238;2023-06-22T22:47:18;19.98;82.24
6930;DHT22;3504;52.616;13.238;2023-06-22T22:52:18;19.88;82.23
6930;DHT22;3504;52.616;13.238;2023-06-22T22:57:19;19.87;82.19
6930;DHT22;3504;52.616;13.238;2023-06-22T23:02:19;19.81;82.39
6930;DHT22;3504;52.616;13.238;2023-06-22T23:07:22;19.73;82.26
6930;DHT22;3504;52.616;13.238;2023-06-22T23:12:24;19.61;81.84
6930;DHT22;3504;52.616;13.238;2023-06-22T23:17:24;19.59;81.63
6930;DHT22;3504;52.616;13.238;2023-06-22T23:22:25;19.50;81.90
6930;DHT22;3504;52.616;13.238;2023-06-22T23:27:25;19.50;81.88
6930;DHT22;3504;52.616;13.238;2023-06-22T23:32:26;19.43;81.91
6930;DHT22;3504;52.616;13.238;2023-06-22T23:37:26;19.30;81.89
6930;DHT22;3504;52.616;13.238;2023-06-22T23:42:27;19.28;82.21
6930;DHT22;3504;52.616;13.238;2023-06-22T23:47:28;19.18;81.99
6930;DHT22;3504;52.616;13.238;2023-06-22T23:52:29;18.95;82.25
6930;DHT22;3504;52.616;13.238;2023-06-22T23:57:29;18.94;81.55
